createdAt,value
2023-02-17T00:01:26.071Z,95.38
2023-02-17T00:03:54.890Z,95.11
2023-02-17T00:06:26.121Z,94.88
2023-02-17T00:08:54.944Z,94.56
2023-02-17T00:11:23.028Z,95.62
2023-02-17T00:13:51.209Z,95.43
2023-02-17T00:16:21.341Z,95.82
2023-02-17T00:18:55.085Z,96.34
2023-02-17T00:21:26.397Z,95.71
2023-02-17T00:23:55.247Z,95.86
2023-02-17T00:26:23.713Z,96.21
2023-02-17T00:28:52.188Z,96.11
2023-02-17T00:31:22.771Z,96.67
2023-02-17T00:33:56.080Z,96.74
2023-02-17T00:36:24.716Z,96.95
2023-02-17T00:38:54.867Z,94.80
2023-02-17T00:41:23.995Z,93.92
2023-02-17T00:43:52.209Z,94.95
2023-02-17T00:46:20.416Z,95.96
2023-02-17T00:48:49.814Z,96.63
2023-02-17T00:51:20.466Z,96.40
2023-02-17T00:53:48.810Z,96.16
2023-02-17T00:56:17.154Z,96.15
2023-02-17T00:58:46.295Z,95.81
2023-02-17T01:01:14.844Z,95.65
2023-02-17T01:03:43.471Z,96.98
2023-02-17T01:06:20.010Z,97.20
2023-02-17T01:08:49.656Z,97.82
2023-02-17T01:11:22.897Z,96.56
2023-02-17T01:13:51.096Z,97.03
2023-02-17T01:16:22.264Z,97.36
2023-02-17T01:18:50.444Z,97.04
2023-02-17T01:21:19.761Z,96.88
2023-02-17T01:23:50.174Z,97.32
2023-02-17T01:26:20.037Z,97.47
2023-02-17T01:28:48.408Z,97.55
2023-02-17T01:31:17.033Z,97.02
2023-02-17T01:33:45.313Z,97.30
2023-02-17T01:36:15.705Z,97.81
2023-02-17T01:38:44.136Z,96.87
2023-02-17T01:41:15.009Z,97.32
2023-02-17T01:43:43.554Z,97.65
2023-02-17T01:46:11.689Z,97.87
2023-02-17T01:48:45.835Z,97.60
2023-02-17T01:51:20.023Z,97.93
2023-02-17T01:53:53.651Z,97.93
2023-02-17T01:56:24.995Z,98.35
2023-02-17T01:58:57.866Z,97.98
2023-02-17T02:01:26.005Z,98.10
2023-02-17T02:03:54.623Z,96.89
2023-02-17T02:06:27.043Z,96.59
2023-02-17T02:09:00.585Z,97.11
2023-02-17T02:11:30.342Z,98.60
2023-02-17T02:14:00.196Z,99.18
2023-02-17T02:16:37.446Z,99.06
2023-02-17T02:19:22.505Z,98.52
2023-02-17T02:22:18.790Z,98.65
2023-02-17T02:25:02.887Z,97.60
2023-02-17T02:27:51.858Z,97.32
2023-02-17T02:30:39.773Z,96.72
2023-02-17T02:33:17.968Z,97.63
2023-02-17T02:35:54.250Z,98.96
2023-02-17T02:38:29.540Z,98.28
2023-02-17T02:41:04.626Z,98.76
2023-02-17T02:43:33.631Z,99.00
2023-02-17T02:46:01.816Z,98.65
2023-02-17T02:48:31.871Z,98.52
2023-02-17T02:51:12.710Z,98.50
2023-02-17T02:54:08.684Z,99.16
2023-02-17T02:56:48.498Z,98.74
2023-02-17T02:59:28.234Z,98.72
2023-02-17T03:02:03.615Z,99.57
2023-02-17T03:04:38.342Z,99.80
2023-02-17T03:07:10.442Z,99.86
2023-02-17T03:09:39.622Z,99.85
2023-02-17T03:12:08.392Z,99.79
2023-02-17T03:14:39.500Z,99.98
2023-02-17T03:17:07.575Z,100.00
2023-02-17T03:19:37.326Z,99.80
2023-02-17T03:22:11.265Z,98.98
2023-02-17T03:24:39.459Z,99.10
2023-02-17T03:27:07.661Z,97.54
2023-02-17T03:29:35.921Z,98.03
2023-02-17T03:32:04.281Z,99.02
2023-02-17T03:34:32.739Z,99.97
2023-02-17T03:37:02.380Z,99.62
2023-02-17T03:39:31.658Z,99.91
2023-02-17T03:41:59.711Z,100.00
2023-02-17T03:44:27.950Z,100.00
2023-02-17T03:46:56.085Z,100.00
2023-02-17T03:49:24.305Z,100.00
2023-02-17T03:51:52.540Z,100.00
2023-02-17T03:54:22.076Z,100.00
2023-02-17T03:56:50.301Z,100.00
2023-02-17T03:59:18.444Z,100.00
2023-02-17T04:01:46.649Z,100.00
2023-02-17T04:04:14.878Z,100.00
2023-02-17T04:06:43.382Z,99.68
2023-02-17T04:09:12.025Z,99.79
2023-02-17T04:11:41.637Z,99.44
2023-02-17T04:14:09.890Z,99.96
2023-02-17T04:16:39.437Z,99.37
2023-02-17T04:19:07.796Z,99.60
2023-02-17T04:21:36.373Z,100.00
2023-02-17T04:24:05.262Z,99.86
2023-02-17T04:26:33.621Z,99.87
2023-02-17T04:29:05.701Z,100.00
2023-02-17T04:31:34.082Z,99.21
2023-02-17T04:34:02.373Z,99.42
2023-02-17T04:36:30.706Z,99.81
2023-02-17T04:38:58.913Z,100.00
2023-02-17T04:41:27.047Z,100.00
2023-02-17T04:43:57.112Z,100.00
2023-02-17T04:46:27.467Z,100.00
2023-02-17T04:48:55.690Z,100.00
2023-02-17T04:51:23.888Z,100.00
2023-02-17T04:53:53.037Z,100.00
2023-02-17T04:56:21.521Z,100.00
2023-02-17T04:58:49.650Z,100.00
2023-02-17T05:01:17.831Z,100.00
2023-02-17T05:03:47.466Z,100.00
2023-02-17T05:06:15.676Z,100.00
2023-02-17T05:08:43.801Z,100.00
2023-02-17T05:11:11.930Z,100.00
2023-02-17T05:13:40.089Z,100.00
2023-02-17T05:16:08.763Z,100.00
2023-02-17T05:18:37.188Z,100.00
2023-02-17T05:21:07.363Z,100.00
2023-02-17T05:23:41.375Z,100.00
2023-02-17T05:26:09.913Z,100.00
2023-02-17T05:28:38.626Z,100.00
2023-02-17T05:31:07.014Z,100.00
2023-02-17T05:33:35.579Z,100.00
2023-02-17T05:36:05.609Z,100.00
2023-02-17T05:38:35.861Z,100.00
2023-02-17T05:41:04.006Z,100.00
2023-02-17T05:43:32.679Z,100.00
2023-02-17T05:46:03.873Z,100.00
2023-02-17T05:48:32.596Z,100.00
2023-02-17T05:51:00.774Z,100.00
2023-02-17T05:53:29.309Z,100.00
2023-02-17T05:55:59.236Z,100.00
2023-02-17T05:58:27.592Z,100.00
2023-02-17T06:00:55.702Z,100.00
2023-02-17T06:03:23.821Z,100.00
2023-02-17T06:05:51.961Z,100.00
2023-02-17T06:08:20.141Z,100.00
2023-02-17T06:10:48.330Z,100.00
2023-02-17T06:13:17.914Z,100.00
2023-02-17T06:15:46.766Z,100.00
2023-02-17T06:18:16.631Z,100.00
2023-02-17T06:20:44.918Z,100.00
2023-02-17T06:23:13.091Z,100.00
2023-02-17T06:25:41.284Z,100.00
2023-02-17T06:28:09.413Z,100.00
2023-02-17T06:30:38.963Z,100.00
2023-02-17T06:33:07.049Z,100.00
2023-02-17T06:35:35.242Z,100.00
2023-02-17T06:38:03.453Z,100.00
2023-02-17T06:40:31.619Z,100.00
2023-02-17T06:42:59.774Z,100.00
2023-02-17T06:45:27.903Z,100.00
2023-02-17T06:47:57.442Z,100.00
2023-02-17T06:50:25.677Z,100.00
2023-02-17T06:52:53.801Z,100.00
2023-02-17T06:55:21.920Z,100.00
2023-02-17T06:57:50.098Z,100.00
2023-02-17T07:00:18.846Z,100.00
2023-02-17T07:02:47.036Z,99.92
2023-02-17T07:05:16.768Z,98.69
2023-02-17T07:07:44.856Z,97.97
2023-02-17T07:10:13.846Z,98.28
2023-02-17T07:12:42.072Z,98.40
2023-02-17T07:15:12.520Z,97.97
2023-02-17T07:17:40.706Z,97.84
2023-02-17T07:20:10.086Z,96.59
2023-02-17T07:22:39.967Z,95.99
2023-02-17T07:25:08.770Z,94.36
2023-02-17T07:27:37.503Z,93.72
2023-02-17T07:30:06.845Z,91.95
2023-02-17T07:32:35.682Z,91.27
2023-02-17T07:35:03.898Z,90.45
2023-02-17T07:37:32.006Z,90.44
2023-02-17T07:40:01.517Z,89.07
2023-02-17T07:42:30.278Z,88.76
2023-02-17T07:44:58.349Z,87.70
2023-02-17T07:47:26.471Z,88.27
2023-02-17T07:49:54.616Z,87.13
2023-02-17T07:52:22.909Z,85.63
2023-02-17T07:54:51.061Z,85.86
2023-02-17T07:57:20.634Z,86.25
2023-02-17T07:59:48.782Z,86.04
2023-02-17T08:02:17.022Z,85.25
2023-02-17T08:04:45.238Z,83.70
2023-02-17T08:07:13.369Z,82.68
2023-02-17T08:09:58.848Z,81.82
2023-02-17T08:12:45.916Z,80.22
2023-02-17T08:15:14.559Z,79.20
2023-02-17T08:17:43.212Z,77.95
2023-02-17T08:20:13.536Z,76.64
2023-02-17T08:22:41.596Z,77.34
2023-02-17T08:25:10.167Z,76.22
2023-02-17T08:27:39.723Z,75.36
2023-02-17T08:30:09.284Z,74.88
2023-02-17T08:32:37.439Z,73.76
2023-02-17T08:35:06.736Z,72.04
2023-02-17T08:37:34.851Z,71.53
2023-02-17T08:40:03.200Z,71.52
2023-02-17T08:42:33.638Z,71.28
2023-02-17T08:45:03.272Z,70.43
2023-02-17T08:47:31.364Z,70.59
2023-02-17T08:49:59.527Z,69.43
2023-02-17T08:52:27.771Z,69.67
2023-02-17T08:54:55.846Z,67.86
2023-02-17T08:57:24.647Z,66.12
2023-02-17T08:59:52.837Z,65.53
2023-02-17T09:02:22.369Z,65.13
2023-02-17T09:04:50.531Z,64.67
2023-02-17T09:07:18.741Z,64.47
2023-02-17T09:09:46.926Z,63.83
2023-02-17T09:12:15.134Z,62.56
2023-02-17T09:14:43.554Z,61.65
2023-02-17T09:17:11.864Z,60.32
2023-02-17T09:19:41.788Z,59.58
2023-02-17T09:22:13.602Z,60.73
2023-02-17T09:24:46.337Z,61.04
2023-02-17T09:27:14.982Z,61.04
2023-02-17T09:29:43.060Z,59.90
2023-02-17T09:32:11.545Z,60.30
2023-02-17T09:34:42.732Z,59.42
2023-02-17T09:37:12.579Z,58.97
2023-02-17T09:39:40.794Z,59.06
2023-02-17T09:42:17.909Z,57.50
2023-02-17T09:44:49.844Z,57.28
2023-02-17T09:47:21.562Z,56.61
2023-02-17T09:49:56.492Z,56.35
2023-02-17T09:52:31.807Z,57.09
2023-02-17T09:55:05.361Z,56.12
2023-02-17T09:57:37.863Z,56.25
2023-02-17T10:00:11.780Z,56.57
2023-02-17T10:02:48.357Z,55.24
2023-02-17T10:05:21.622Z,55.47
2023-02-17T10:07:54.683Z,54.50
2023-02-17T10:10:27.483Z,54.64
2023-02-17T10:12:59.341Z,53.47
2023-02-17T10:15:31.209Z,53.78
2023-02-17T10:18:06.116Z,52.59
2023-02-17T10:20:41.245Z,52.88
2023-02-17T10:23:20.225Z,52.51
2023-02-17T10:26:07.501Z,52.19
2023-02-17T10:28:50.189Z,51.22
2023-02-17T10:31:27.501Z,50.75
2023-02-17T10:34:04.204Z,49.45
2023-02-17T10:36:45.357Z,48.84
2023-02-17T10:39:16.535Z,49.06
2023-02-17T10:41:49.450Z,48.02
2023-02-17T10:44:22.598Z,48.70
2023-02-17T10:46:52.124Z,49.54
2023-02-17T10:49:27.951Z,47.30
2023-02-17T10:52:02.228Z,47.53
2023-02-17T10:54:37.218Z,47.61
2023-02-17T10:57:11.232Z,46.59
2023-02-17T10:59:42.421Z,46.29
2023-02-17T11:02:20.803Z,46.34
2023-02-17T11:04:51.691Z,47.72
2023-02-17T11:07:28.384Z,47.05
2023-02-17T11:10:03.204Z,46.34
2023-02-17T11:12:40.178Z,45.19
2023-02-17T11:15:18.700Z,44.98
2023-02-17T11:17:47.555Z,44.56
2023-02-17T11:20:34.797Z,44.82
2023-02-17T11:23:25.358Z,44.46
2023-02-17T11:25:59.303Z,43.24
2023-02-17T11:28:29.096Z,43.31
2023-02-17T11:30:58.826Z,42.36
2023-02-17T11:33:32.722Z,43.63
2023-02-17T11:36:01.917Z,43.34
2023-02-17T11:38:42.456Z,42.95
2023-02-17T11:41:11.246Z,42.17
2023-02-17T11:43:40.202Z,42.54
2023-02-17T11:46:19.053Z,41.96
2023-02-17T11:49:40.652Z,42.09
2023-02-17T11:52:22.476Z,42.48
2023-02-17T11:55:09.169Z,42.09
2023-02-17T11:57:42.791Z,41.50
2023-02-17T12:00:17.797Z,41.81
2023-02-17T12:03:29.021Z,41.74
2023-02-17T12:06:08.154Z,40.81
2023-02-17T12:08:49.303Z,41.08
2023-02-17T12:11:28.271Z,40.57
2023-02-17T12:14:07.941Z,39.84
2023-02-17T12:16:46.388Z,40.38
2023-02-17T12:19:32.696Z,40.74
2023-02-17T12:22:14.663Z,40.79
2023-02-17T12:25:03.511Z,40.27
2023-02-17T12:27:50.012Z,40.81
2023-02-17T12:30:29.407Z,40.21
2023-02-17T12:33:20.637Z,40.87
2023-02-17T12:35:53.186Z,41.39
2023-02-17T12:38:27.077Z,41.25
2023-02-17T12:40:59.713Z,41.31
2023-02-17T12:43:37.199Z,41.37
2023-02-17T12:46:09.351Z,40.54
2023-02-17T12:48:41.221Z,39.95
2023-02-17T12:51:13.569Z,39.91
2023-02-17T12:53:48.516Z,40.74
2023-02-17T12:56:44.487Z,40.00
2023-02-17T12:59:17.505Z,40.49
2023-02-17T13:01:54.214Z,39.51
2023-02-17T13:04:26.349Z,38.47
2023-02-17T13:07:02.648Z,38.34
2023-02-17T13:09:36.337Z,38.57
2023-02-17T13:12:33.767Z,38.16
2023-02-17T13:15:06.185Z,38.05
2023-02-17T13:17:38.603Z,37.85
2023-02-17T13:20:23.849Z,37.93
2023-02-17T13:22:52.228Z,37.14
2023-02-17T13:25:33.854Z,37.00
2023-02-17T13:28:04.880Z,37.11
2023-02-17T13:30:41.064Z,36.20
2023-02-17T13:33:28.184Z,36.05
2023-02-17T13:35:56.379Z,37.15
2023-02-17T13:38:29.170Z,37.35
2023-02-17T13:41:01.813Z,37.82
2023-02-17T13:43:31.910Z,38.48
2023-02-17T13:46:04.462Z,38.36
2023-02-17T13:48:34.896Z,38.11
2023-02-17T13:51:04.438Z,37.92
2023-02-17T13:53:36.672Z,38.10
2023-02-17T13:56:08.401Z,38.43
2023-02-17T13:58:38.799Z,38.60
2023-02-17T14:01:15.419Z,38.49
2023-02-17T14:03:47.538Z,38.88
2023-02-17T14:06:27.837Z,39.21
2023-02-17T14:08:56.652Z,39.46
2023-02-17T14:11:27.004Z,39.41
2023-02-17T14:13:57.187Z,39.94
2023-02-17T14:16:32.005Z,39.95
2023-02-17T14:19:05.601Z,40.20
2023-02-17T14:21:34.285Z,40.19
2023-02-17T14:24:02.804Z,40.06
2023-02-17T14:26:36.824Z,39.74
2023-02-17T14:29:06.869Z,39.93
2023-02-17T14:31:41.222Z,40.05
2023-02-17T14:34:15.940Z,40.30
2023-02-17T14:36:44.182Z,42.35
2023-02-17T14:39:15.809Z,43.44
2023-02-17T14:41:44.910Z,45.30
2023-02-17T14:44:13.069Z,43.68
2023-02-17T14:46:42.659Z,43.46
2023-02-17T14:49:10.794Z,43.19
2023-02-17T14:51:39.680Z,43.34
2023-02-17T14:54:15.162Z,43.65
2023-02-17T14:56:47.808Z,44.00
2023-02-17T14:59:16.017Z,43.99
2023-02-17T15:01:45.608Z,46.27
2023-02-17T15:04:13.766Z,56.09
2023-02-17T15:06:44.312Z,56.68
2023-02-17T15:09:14.859Z,53.57
2023-02-17T15:11:45.808Z,51.36
2023-02-17T15:14:16.752Z,50.74
2023-02-17T15:16:46.907Z,50.46
2023-02-17T15:19:18.048Z,50.51
2023-02-17T15:21:49.188Z,51.00
2023-02-17T15:24:20.193Z,54.76
2023-02-17T15:26:48.546Z,55.58
2023-02-17T15:29:18.145Z,55.84
2023-02-17T15:31:48.496Z,55.00
2023-02-17T15:34:19.769Z,53.82
2023-02-17T15:36:48.590Z,52.44
2023-02-17T15:39:18.677Z,52.51
2023-02-17T15:41:48.576Z,53.37
2023-02-17T15:44:19.299Z,54.80
2023-02-17T15:46:51.153Z,54.79
2023-02-17T15:49:19.369Z,56.57
2023-02-17T15:51:47.543Z,60.87
2023-02-17T15:54:19.351Z,61.48
2023-02-17T15:56:50.859Z,60.75
2023-02-17T15:59:25.909Z,61.09
2023-02-17T16:02:01.377Z,63.14
2023-02-17T16:04:30.104Z,62.25
2023-02-17T16:06:58.349Z,59.96
2023-02-17T16:09:26.513Z,59.68
2023-02-17T16:11:57.512Z,60.30
2023-02-17T16:14:29.586Z,56.33
2023-02-17T16:16:59.455Z,53.33
2023-02-17T16:19:28.557Z,53.53
2023-02-17T16:21:57.288Z,53.86
2023-02-17T16:24:25.999Z,55.69
2023-02-17T16:26:56.567Z,55.27
2023-02-17T16:29:24.828Z,54.22
2023-02-17T16:31:53.214Z,55.54
2023-02-17T16:34:24.660Z,61.15
2023-02-17T16:36:55.144Z,60.19
2023-02-17T16:39:23.819Z,59.47
2023-02-17T16:41:52.137Z,58.89
2023-02-17T16:44:22.497Z,58.15
2023-02-17T16:46:52.118Z,57.66
2023-02-17T16:49:25.960Z,58.97
2023-02-17T16:51:54.144Z,60.15
2023-02-17T16:54:22.387Z,60.43
2023-02-17T16:56:52.118Z,60.42
2023-02-17T16:59:24.299Z,60.77
2023-02-17T17:01:54.436Z,60.40
2023-02-17T17:04:24.656Z,59.60
2023-02-17T17:06:53.924Z,59.18
2023-02-17T17:09:24.583Z,60.01
2023-02-17T17:11:52.721Z,60.46
2023-02-17T17:14:21.930Z,60.36
2023-02-17T17:16:57.412Z,60.57
2023-02-17T17:19:27.085Z,60.62
2023-02-17T17:21:55.243Z,61.02
2023-02-17T17:24:23.366Z,61.22
2023-02-17T17:26:51.688Z,61.71
2023-02-17T17:29:20.699Z,62.86
2023-02-17T17:31:49.236Z,63.78
2023-02-17T17:34:17.416Z,64.43
2023-02-17T17:36:49.067Z,64.39
2023-02-17T17:39:20.030Z,64.06
2023-02-17T17:41:48.550Z,64.39
2023-02-17T17:44:16.652Z,63.55
2023-02-17T17:46:45.520Z,64.20
2023-02-17T17:49:18.036Z,63.53
2023-02-17T17:51:47.562Z,63.11
2023-02-17T17:54:15.711Z,63.55
2023-02-17T17:56:44.168Z,64.18
2023-02-17T17:59:13.516Z,64.83
2023-02-17T18:01:43.865Z,65.03
2023-02-17T18:04:13.350Z,65.67
2023-02-17T18:06:44.697Z,65.84
2023-02-17T18:09:31.142Z,66.11
2023-02-17T18:12:03.972Z,66.06
2023-02-17T18:14:32.751Z,64.84
2023-02-17T18:17:01.147Z,64.59
2023-02-17T18:19:31.816Z,64.20
2023-02-17T18:22:00.115Z,64.13
2023-02-17T18:24:29.720Z,64.07
2023-02-17T18:26:57.834Z,64.61
2023-02-17T18:29:25.970Z,64.72
2023-02-17T18:31:54.297Z,65.71
2023-02-17T18:34:22.567Z,66.27
2023-02-17T18:36:50.824Z,67.59
2023-02-17T18:39:19.015Z,67.82
2023-02-17T18:41:48.588Z,67.80
2023-02-17T18:44:16.996Z,68.39
2023-02-17T18:46:45.160Z,68.22
2023-02-17T18:49:13.359Z,68.19
2023-02-17T18:51:41.666Z,68.37
2023-02-17T18:54:11.101Z,68.84
2023-02-17T18:56:39.303Z,68.72
2023-02-17T18:59:08.869Z,68.87
2023-02-17T19:01:40.993Z,69.27
2023-02-17T19:04:09.818Z,69.74
2023-02-17T19:06:38.008Z,70.08
2023-02-17T19:09:07.046Z,70.17
2023-02-17T19:11:35.409Z,68.45
2023-02-17T19:14:03.879Z,68.69
2023-02-17T19:16:34.021Z,69.50
2023-02-17T19:19:03.028Z,70.29
2023-02-17T19:21:31.560Z,71.80
2023-02-17T19:23:59.801Z,72.35
2023-02-17T19:26:27.937Z,72.88
2023-02-17T19:28:56.370Z,73.15
2023-02-17T19:31:25.083Z,72.60
2023-02-17T19:33:54.694Z,72.43
2023-02-17T19:36:23.746Z,72.99
2023-02-17T19:38:52.256Z,72.94
2023-02-17T19:41:20.984Z,72.44
2023-02-17T19:43:49.367Z,72.30
2023-02-17T19:46:21.175Z,72.25
2023-02-17T19:48:49.555Z,72.66
2023-02-17T19:51:19.195Z,72.89
2023-02-17T19:53:47.407Z,73.33
2023-02-17T19:56:17.546Z,73.69
2023-02-17T19:58:47.724Z,73.93
2023-02-17T20:01:19.002Z,73.86
2023-02-17T20:03:47.664Z,74.27
2023-02-17T20:06:19.312Z,74.61
2023-02-17T20:08:48.315Z,73.78
2023-02-17T20:11:16.630Z,74.35
2023-02-17T20:13:46.432Z,74.85
2023-02-17T20:16:16.820Z,75.73
2023-02-17T20:18:47.378Z,76.57
2023-02-17T20:21:17.445Z,76.89
2023-02-17T20:23:47.514Z,77.00
2023-02-17T20:26:18.735Z,77.52
2023-02-17T20:28:47.706Z,77.75
2023-02-17T20:31:16.466Z,77.31
2023-02-17T20:33:46.051Z,76.91
2023-02-17T20:36:14.233Z,76.57
2023-02-17T20:38:42.951Z,76.87
2023-02-17T20:41:19.238Z,76.52
2023-02-17T20:43:47.702Z,76.87
2023-02-17T20:46:25.099Z,77.12
2023-02-17T20:48:53.883Z,77.45
2023-02-17T20:51:21.989Z,77.86
2023-02-17T20:53:50.235Z,77.78
2023-02-17T20:56:23.018Z,78.00
2023-02-17T20:58:52.255Z,78.07
2023-02-17T21:01:20.530Z,78.92
2023-02-17T21:03:49.392Z,79.14
2023-02-17T21:06:22.674Z,79.86
2023-02-17T21:08:52.811Z,79.53
2023-02-17T21:11:22.505Z,79.78
2023-02-17T21:13:51.020Z,80.38
2023-02-17T21:16:22.112Z,80.27
2023-02-17T21:18:50.553Z,80.06
2023-02-17T21:21:18.979Z,80.07
2023-02-17T21:23:48.992Z,79.53
2023-02-17T21:26:18.002Z,80.01
2023-02-17T21:28:48.609Z,80.09
2023-02-17T21:31:18.888Z,79.61
2023-02-17T21:33:47.249Z,79.67
2023-02-17T21:36:17.933Z,80.56
2023-02-17T21:38:47.333Z,81.67
2023-02-17T21:41:17.902Z,82.44
2023-02-17T21:44:05.397Z,82.72
2023-02-17T21:46:35.475Z,82.68
2023-02-17T21:49:03.985Z,82.24
2023-02-17T21:51:32.252Z,82.45
2023-02-17T21:54:00.637Z,82.46
2023-02-17T21:56:28.790Z,82.32
2023-02-17T21:58:58.723Z,82.68
2023-02-17T22:01:28.586Z,83.10
2023-02-17T22:03:57.929Z,82.66
2023-02-17T22:06:28.923Z,82.84
2023-02-17T22:08:58.084Z,83.05
2023-02-17T22:11:29.872Z,83.17
2023-02-17T22:14:01.379Z,83.28
2023-02-17T22:16:30.892Z,82.89
2023-02-17T22:18:59.202Z,83.29
2023-02-17T22:21:27.577Z,83.19
2023-02-17T22:23:56.135Z,83.34
2023-02-17T22:26:26.763Z,82.80
2023-02-17T22:28:56.314Z,83.41
2023-02-17T22:31:27.940Z,83.47
2023-02-17T22:33:58.018Z,84.19
2023-02-17T22:36:27.552Z,83.71
2023-02-17T22:38:56.211Z,84.14
2023-02-17T22:41:26.554Z,83.45
2023-02-17T22:43:55.374Z,84.49
2023-02-17T22:46:27.382Z,84.46
2023-02-17T22:48:57.402Z,85.01
2023-02-17T22:51:27.491Z,85.25
2023-02-17T22:53:55.867Z,84.38
2023-02-17T22:56:24.835Z,84.42
2023-02-17T22:58:56.589Z,85.27
2023-02-17T23:01:26.553Z,85.66
2023-02-17T23:03:55.171Z,85.76
2023-02-17T23:06:25.646Z,86.45
2023-02-17T23:08:55.187Z,86.18
2023-02-17T23:11:39.065Z,86.25
2023-02-17T23:14:07.681Z,86.81
2023-02-17T23:16:37.738Z,86.54
2023-02-17T23:19:07.922Z,86.95
2023-02-17T23:21:36.932Z,86.63
2023-02-17T23:24:05.902Z,87.12
2023-02-17T23:26:34.265Z,87.33
2023-02-17T23:29:02.334Z,87.47
2023-02-17T23:31:30.570Z,87.96
2023-02-17T23:34:00.362Z,88.39
2023-02-17T23:36:28.515Z,89.05
2023-02-17T23:38:56.880Z,88.84
2023-02-17T23:41:25.062Z,89.31
2023-02-17T23:43:53.222Z,89.79
2023-02-17T23:46:21.678Z,89.66
2023-02-17T23:48:50.030Z,90.38
2023-02-17T23:51:21.242Z,90.76
2023-02-17T23:53:49.619Z,90.76
2023-02-17T23:56:21.824Z,90.38
2023-02-17T23:58:50.063Z,90.10
